Observation data for Dimmitt on 09/12/2017      Previous  Date  Next       Current Mesonet Observations  Soil Data  Daily Summary Page  Observations in Plain Language
KDMS 120500Z 15006KT 17/12 A3018 RMK A01 T01700119  RH  073%=      5-min Rain = 0
KDMS 120505Z 16006KT 17/12 A3018 RMK A01 T01680119  RH  075%=      5-min Rain = 0
KDMS 120510Z 17006KT 17/12 A3017 RMK A01 T01650119  RH  076%=      5-min Rain = 0
KDMS 120515Z 17006KT 17/12 A3017 RMK A01 T01650118  RH  075%=      5-min Rain = 0
KDMS 120520Z 17006KT 17/12 A3017 RMK A01 T01660117  RH  074%=      5-min Rain = 0
KDMS 120525Z 17006KT 17/12 A3017 RMK A01 T01670117  RH  073%=      5-min Rain = 0
KDMS 120530Z 17007KT 17/12 A3017 RMK A01 T01660117  RH  074%=      5-min Rain = 0
KDMS 120535Z 17007KT 17/12 A3017 RMK A01 T01650117  RH  075%=      5-min Rain = 0
KDMS 120540Z 16008KT 17/12 A3017 RMK A01 T01680116  RH  073%=      5-min Rain = 0
KDMS 120545Z 16008KT 17/12 A3017 RMK A01 T01710115  RH  071%=      5-min Rain = 0
KDMS 120550Z 15007KT 17/12 A3017 RMK A01 T01710115  RH  071%=      5-min Rain = 0
KDMS 120555Z 15007KT 17/11 A3017 RMK A01 T01690113  RH  071%=      5-min Rain = 0
KDMS 120600Z 15007KT 17/11 A3017 RMK A01 T01670113  RH  072%=      5-min Rain = 0
KDMS 120605Z 16007KT 17/11 A3016 RMK A01 T01660113  RH  072%=      5-min Rain = 0
KDMS 120610Z 16007KT 17/11 A3016 RMK A01 T01650113  RH  073%=      5-min Rain = 0
KDMS 120615Z 16007KT 16/11 A3016 RMK A01 T01640112  RH  073%=      5-min Rain = 0
KDMS 120620Z 16007KT 16/11 A3016 RMK A01 T01630112  RH  073%=      5-min Rain = 0
KDMS 120625Z 16007KT 16/11 A3016 RMK A01 T01620111  RH  073%=      5-min Rain = 0
KDMS 120630Z 16007KT 16/11 A3016 RMK A01 T01620111  RH  073%=      5-min Rain = 0
KDMS 120635Z 16007KT 16/11 A3016 RMK A01 T01620111  RH  073%=      5-min Rain = 0
KDMS 120640Z 16007KT 16/11 A3016 RMK A01 T01600110  RH  073%=      5-min Rain = 0
KDMS 120645Z 16007KT 16/11 A3016 RMK A01 T01580110  RH  074%=      5-min Rain = 0
KDMS 120650Z 16006KT 16/11 A3015 RMK A01 T01560110  RH  075%=      5-min Rain = 0
KDMS 120655Z 16006KT 15/11 A3015 RMK A01 T01540110  RH  076%=      5-min Rain = 0
KDMS 120700Z 16006KT 15/11 A3015 RMK A01 T01530110  RH  077%=      5-min Rain = 0
KDMS 120705Z 16006KT 15/11 A3015 RMK A01 T01530110  RH  077%=      5-min Rain = 0
KDMS 120710Z 16006KT 15/11 A3015 RMK A01 T01530110  RH  077%=      5-min Rain = 0
KDMS 120715Z 16006KT 15/11 A3015 RMK A01 T01520110  RH  077%=      5-min Rain = 0
KDMS 120720Z 16006KT 15/11 A3015 RMK A01 T01520110  RH  077%=      5-min Rain = 0
KDMS 120725Z 16005KT 15/11 A3015 RMK A01 T01520109  RH  077%=      5-min Rain = 0
KDMS 120730Z 16005KT 15/11 A3015 RMK A01 T01530108  RH  076%=      5-min Rain = 0
KDMS 120735Z 17005KT 15/11 A3015 RMK A01 T01530108  RH  076%=      5-min Rain = 0
KDMS 120740Z 18005KT 15/11 A3015 RMK A01 T01540108  RH  076%=      5-min Rain = 0
KDMS 120745Z 18005KT 16/11 A3015 RMK A01 T01550110  RH  076%=      5-min Rain = 0
KDMS 120750Z 18006KT 16/11 A3014 RMK A01 T01580110  RH  075%=      5-min Rain = 0
KDMS 120755Z 19007KT 16/11 A3014 RMK A01 T01560109  RH  075%=      5-min Rain = 0
KDMS 120800Z 20006KT 15/11 A3014 RMK A01 T01530109  RH  077%=      5-min Rain = 0
KDMS 120805Z 20007KT 16/11 A3014 RMK A01 T01550111  RH  076%=      5-min Rain = 0
KDMS 120810Z 20006KT 16/11 A3014 RMK A01 T01590112  RH  075%=      5-min Rain = 0
KDMS 120815Z 19006KT 16/11 A3014 RMK A01 T01600111  RH  074%=      5-min Rain = 0
KDMS 120820Z 19006KT 16/11 A3014 RMK A01 T01580109  RH  074%=      5-min Rain = 0
KDMS 120825Z 20006KT 16/11 A3014 RMK A01 T01550109  RH  075%=      5-min Rain = 0
KDMS 120830Z 20006KT 16/11 A3014 RMK A01 T01560110  RH  075%=      5-min Rain = 0
KDMS 120835Z 20006KT 16/11 A3014 RMK A01 T01560110  RH  075%=      5-min Rain = 0
KDMS 120840Z 19006KT 16/11 A3013 RMK A01 T01560108  RH  075%=      5-min Rain = 0
KDMS 120845Z 19006KT 16/11 A3013 RMK A01 T01550106  RH  073%=      5-min Rain = 0
KDMS 120850Z 19006KT 15/11 A3013 RMK A01 T01540106  RH  074%=      5-min Rain = 0
KDMS 120855Z 19005KT 15/11 A3013 RMK A01 T01520106  RH  075%=      5-min Rain = 0
KDMS 120900Z 19004KT 15/11 A3013 RMK A01 T01500106  RH  076%=      5-min Rain = 0
KDMS 120905Z 20004KT 15/11 A3013 RMK A01 T01490106  RH  077%=      5-min Rain = 0
KDMS 120910Z 20004KT 15/11 A3013 RMK A01 T01500107  RH  077%=      5-min Rain = 0
KDMS 120915Z 20004KT 16/11 A3013 RMK A01 T01560110  RH  076%=      5-min Rain = 0
KDMS 120920Z 20004KT 16/11 A3012 RMK A01 T01580109  RH  074%=      5-min Rain = 0
KDMS 120925Z 21005KT 16/11 A3012 RMK A01 T01550109  RH  075%=      5-min Rain = 0
KDMS 120930Z 21004KT 16/11 A3012 RMK A01 T01550110  RH  076%=      5-min Rain = 0
KDMS 120935Z 21004KT 16/11 A3012 RMK A01 T01580112  RH  075%=      5-min Rain = 0
KDMS 120940Z 21004KT 16/11 A3012 RMK A01 T01610112  RH  074%=      5-min Rain = 0
KDMS 120945Z 21004KT 16/11 A3012 RMK A01 T01620112  RH  073%=      5-min Rain = 0
KDMS 120950Z 21004KT 16/11 A3012 RMK A01 T01630113  RH  074%=      5-min Rain = 0
KDMS 120955Z 21004KT 16/11 A3012 RMK A01 T01610113  RH  075%=      5-min Rain = 0
KDMS 121000Z 21004KT 16/11 A3012 RMK A01 T01590107  RH  073%=      5-min Rain = 0
KDMS 121005Z 21004KT 16/11 A3012 RMK A01 T01580107  RH  073%=      5-min Rain = 0
KDMS 121010Z 22005KT 16/11 A3012 RMK A01 T01570108  RH  074%=      5-min Rain = 0
KDMS 121015Z 22005KT 16/11 A3011 RMK A01 T01570109  RH  075%=      5-min Rain = 0
KDMS 121020Z 23006KT 15/11 A3011 RMK A01 T01540109  RH  076%=      5-min Rain = 0
KDMS 121025Z 23005KT 15/11 A3011 RMK A01 T01530111  RH  077%=      5-min Rain = 0
KDMS 121030Z 23005KT 15/11 A3011 RMK A01 T01520112  RH  078%=      5-min Rain = 0
KDMS 121035Z 23005KT 15/11 A3011 RMK A01 T01500112  RH  079%=      5-min Rain = 0
KDMS 121040Z 23005KT 15/11 A3011 RMK A01 T01520112  RH  078%=      5-min Rain = 0
KDMS 121045Z 23005KT 15/11 A3011 RMK A01 T01520112  RH  078%=      5-min Rain = 0
KDMS 121050Z 23004KT 15/11 A3011 RMK A01 T01530113  RH  078%=      5-min Rain = 0
KDMS 121055Z 23004KT 15/11 A3011 RMK A01 T01510110  RH  078%=      5-min Rain = 0
KDMS 121100Z 24004KT 15/11 A3011 RMK A01 T01500109  RH  078%=      5-min Rain = 0
KDMS 121105Z 24004KT 15/11 A3011 RMK A01 T01490109  RH  078%=      5-min Rain = 0
KDMS 121110Z 25004KT 15/11 A3011 RMK A01 T01470108  RH  079%=      5-min Rain = 0
KDMS 121115Z 25005KT 15/11 A3011 RMK A01 T01450108  RH  080%=      5-min Rain = 0
KDMS 121120Z 26004KT 15/11 A3011 RMK A01 T01450110  RH  081%=      5-min Rain = 0
KDMS 121125Z 28003KT 14/11 A3011 RMK A01 T01430107  RH  081%=      5-min Rain = 0
KDMS 121130Z 27004KT 14/11 A3011 RMK A01 T01390105  RH  081%=      5-min Rain = 0
KDMS 121135Z 27003KT 14/10 A3011 RMK A01 T01360104  RH  082%=      5-min Rain = 0
KDMS 121140Z 25003KT 14/11 A3011 RMK A01 T01360105  RH  083%=      5-min Rain = 0
KDMS 121145Z 25004KT 14/11 A3011 RMK A01 T01400107  RH  082%=      5-min Rain = 0
KDMS 121150Z 25003KT 14/11 A3011 RMK A01 T01440107  RH  080%=      5-min Rain = 0
KDMS 121155Z 25003KT 15/11 A3011 RMK A01 T01450107  RH  079%=      5-min Rain = 0
KDMS 121200Z 27005KT 14/11 A3011 RMK A01 T01420105  RH  080%=      5-min Rain = 0
KDMS 121205Z 27005KT 14/10 A3011 RMK A01 T01380103  RH  081%=      5-min Rain = 0
KDMS 121210Z 28005KT 13/10 A3011 RMK A01 T01340103  RH  083%=      5-min Rain = 0
KDMS 121215Z 28007KT 13/10 A3011 RMK A01 T01310101  RH  084%=      5-min Rain = 0
KDMS 121220Z 28006KT 13/10 A3011 RMK A01 T01280101  RH  085%=      5-min Rain = 0
KDMS 121225Z 24002KT 13/10 A3011 RMK A01 T01280102  RH  085%=      5-min Rain = 0
KDMS 121230Z 24003KT 13/10 A3011 RMK A01 T01300104  RH  085%=      5-min Rain = 0
KDMS 121235Z 25003KT 13/10 A3011 RMK A01 T01320103  RH  084%=      5-min Rain = 0
KDMS 121240Z 25003KT 13/10 A301 RMK A01 T01310102  RH  084%=      5-min Rain = 0
KDMS 121245Z 24003KT 13/10 A301 RMK A01 T01330103  RH  083%=      5-min Rain = 0
KDMS 121250Z 24003KT 14/10 A301 RMK A01 T01360104  RH  082%=      5-min Rain = 0
KDMS 121255Z 22003KT 14/11 A301 RMK A01 T01380106  RH  082%=      5-min Rain = 0
KDMS 121300Z 22004KT 14/11 A301 RMK A01 T01390108  RH  083%=      5-min Rain = 0
KDMS 121305Z 22004KT 14/11 A301 RMK A01 T01400110  RH  083%=      5-min Rain = 0
KDMS 121310Z 22003KT 14/11 A301 RMK A01 T01410110  RH  083%=      5-min Rain = 0
KDMS 121315Z 22003KT 15/11 A301 RMK A01 T01450111  RH  081%=      5-min Rain = 0
KDMS 121320Z 22003KT 15/11 A301 RMK A01 T01490112  RH  080%=      5-min Rain = 0
KDMS 121325Z 22002KT 15/12 A3011 RMK A01 T01540116  RH  079%=      5-min Rain = 0
KDMS 121330Z 22000KT 16/12 A3011 RMK A01 T01590118  RH  078%=      5-min Rain = 0
KDMS 121335Z 22001KT 17/12 A3011 RMK A01 T01660120  RH  076%=      5-min Rain = 0
KDMS 121340Z 22001KT 17/12 A3011 RMK A01 T01720120  RH  073%=      5-min Rain = 0
KDMS 121345Z 22001KT 18/12 A3011 RMK A01 T01780118  RH  069%=      5-min Rain = 0
KDMS 121350Z 10002KT 18/12 A3011 RMK A01 T01800121  RH  069%=      5-min Rain = 0
KDMS 121355Z 09002KT 18/12 A3011 RMK A01 T01800124  RH  071%=      5-min Rain = 0
KDMS 121400Z 09002KT 18/13 A3011 RMK A01 T01790125  RH  072%=      5-min Rain = 0
KDMS 121405Z 11002KT 18/13 A3011 RMK A01 T01800128  RH  073%=      5-min Rain = 0
KDMS 121410Z 11000KT 18/13 A3011 RMK A01 T01820130  RH  073%=      5-min Rain = 0
KDMS 121415Z 11000KT 19/13 A3011 RMK A01 T01880126  RH  068%=      5-min Rain = 0
KDMS 121420Z 11000KT 19/12 A3011 RMK A01 T01940124  RH  065%=      5-min Rain = 0
KDMS 121425Z 13000KT 20/12 A3011 RMK A01 T01950123  RH  064%=      5-min Rain = 0
KDMS 121430Z 19001KT 20/12 A3011 RMK A01 T01950123  RH  064%=      5-min Rain = 0
KDMS 121435Z 19002KT 20/13 A3011 RMK A01 T01960125  RH  065%=      5-min Rain = 0
KDMS 121440Z 18002KT 20/13 A3011 RMK A01 T02000126  RH  064%=      5-min Rain = 0
KDMS 121445Z 18001KT 21/12 A3011 RMK A01 T02050124  RH  061%=      5-min Rain = 0
KDMS 121450Z 18000KT 21/12 A3011 RMK A01 T02140123  RH  057%=      5-min Rain = 0
KDMS 121455Z 18000KT 22/13 A3011 RMK A01 T02190125  RH  056%=      5-min Rain = 0
KDMS 121500Z 19001KT 22/12 A3011 RMK A01 T02200122  RH  055%=      5-min Rain = 0
KDMS 121505Z 20001KT 22/12 A3011 RMK A01 T02210122  RH  054%=      5-min Rain = 0
KDMS 121510Z 21002KT 22/13 A3011 RMK A01 T02240127  RH  055%=      5-min Rain = 0
KDMS 121515Z 24002KT 23/13 A3011 RMK A01 T02280129  RH  055%=      5-min Rain = 0
KDMS 121520Z 27002KT 23/13 A3011 RMK A01 T02330126  RH  052%=      5-min Rain = 0
KDMS 121525Z 28002KT 24/11 A3011 RMK A01 T02400114  RH  046%=      5-min Rain = 0
KDMS 121530Z 30002KT 25/11 A3011 RMK A01 T02450107  RH  043%=      5-min Rain = 0
KDMS 121535Z 30003KT 25/11 A3011 RMK A01 T02490109  RH  042%=      5-min Rain = 0
KDMS 121540Z 31003KT 25/11 A3011 RMK A01 T02520107  RH  041%=      5-min Rain = 0
KDMS 121545Z 32003KT 25/10 A3011 RMK A01 T02540096  RH  037%=      5-min Rain = 0
KDMS 121550Z 30002KT 26/10 A3011 RMK A01 T02570103  RH  038%=      5-min Rain = 0
KDMS 121555Z 28003KT 26/11 A3011 RMK A01 T02610108  RH  039%=      5-min Rain = 0
KDMS 121600Z 32003KT 26/10 A3011 RMK A01 T02630103  RH  037%=      5-min Rain = 0
KDMS 121605Z 31003KT 26/10 A3011 RMK A01 T02640096  RH  035%=      5-min Rain = 0
KDMS 121610Z 31003KT 27/09 A3011 RMK A01 T02660094  RH  035%=      5-min Rain = 0
KDMS 121615Z 29003KT 27/09 A3011 RMK A01 T02670092  RH  034%=      5-min Rain = 0
KDMS 121620Z 30004KT 27/10 A301 RMK A01 T02710099  RH  035%=      5-min Rain = 0
KDMS 121625Z 29003KT 27/10 A301 RMK A01 T02730098  RH  034%=      5-min Rain = 0
KDMS 121630Z 32004KT 27/10 A301 RMK A01 T02730098  RH  034%=      5-min Rain = 0
KDMS 121635Z 27003KT 28/10 A301 RMK A01 T02750096  RH  033%=      5-min Rain = 0
KDMS 121640Z 25004KT 28/10 A301 RMK A01 T02780096  RH  032%=      5-min Rain = 0
KDMS 121645Z 30005KT 28/08 A301 RMK A01 T02790084  RH  030%=      5-min Rain = 0
KDMS 121650Z 29006KT 28/09 A301 RMK A01 T02830092  RH  031%=      5-min Rain = 0
KDMS 121655Z 29006KT 29/09 A301 RMK A01 T02850091  RH  030%=      5-min Rain = 0
KDMS 121700Z 28006KT 29/09 A301 RMK A01 T02860091  RH  030%=      5-min Rain = 0
KDMS 121705Z 31005KT 29/08 A301 RMK A01 T02870084  RH  028%=      5-min Rain = 0
KDMS 121710Z 30006KT 29/09 A3009 RMK A01 T02870087  RH  029%=      5-min Rain = 0
KDMS 121715Z 30005KT 29/10 A3009 RMK A01 T02890096  RH  031%=      5-min Rain = 0
KDMS 121720Z 32005KT 29/10 A3009 RMK A01 T02920098  RH  030%=      5-min Rain = 0
KDMS 121725Z 30005G10KT 29/10 A3009 RMK A01 T02930104  RH  031%=      5-min Rain = 0
KDMS 121730Z 27005KT 29/10 A3009 RMK A01 T02920098  RH  030%=      5-min Rain = 0
KDMS 121735Z 30004KT 29/11 A3009 RMK A01 T02930105  RH  032%=      5-min Rain = 0
KDMS 121740Z 28005KT 30/10 A3009 RMK A01 T02960099  RH  030%=      5-min Rain = 0
KDMS 121745Z 28004KT 30/10 A3008 RMK A01 T02960101  RH  030%=      5-min Rain = 0
KDMS 121750Z 31008G13KT 30/10 A3008 RMK A01 T03010095  RH  028%=      5-min Rain = 0
KDMS 121755Z 30005KT 30/09 A3008 RMK A01 T03020091  RH  027%=      5-min Rain = 0
KDMS 121800Z 29006KT 30/09 A3008 RMK A01 T03020089  RH  027%=      5-min Rain = 0
KDMS 121805Z 29007G12KT 30/09 A3007 RMK A01 T03030086  RH  026%=      5-min Rain = 0
KDMS 121810Z 31006KT 30/08 A3007 RMK A01 T03040080  RH  025%=      5-min Rain = 0
KDMS 121815Z 29006G12KT 30/08 A3007 RMK A01 T03030080  RH  025%=      5-min Rain = 0
KDMS 121820Z 27004G13KT 30/08 A3007 RMK A01 T03030084  RH  026%=      5-min Rain = 0
KDMS 121825Z 28009KT 31/08 A3007 RMK A01 T03060080  RH  025%=      5-min Rain = 0
KDMS 121830Z 28009G14KT 31/08 A3007 RMK A01 T03070079  RH  025%=      5-min Rain = 0
KDMS 121835Z 27010KT 31/08 A3007 RMK A01 T03050081  RH  025%=      5-min Rain = 0
KDMS 121840Z 29008KT 31/08 A3006 RMK A01 T03060083  RH  025%=      5-min Rain = 0
KDMS 121845Z 27008G13KT 31/08 A3006 RMK A01 T03060084  RH  026%=      5-min Rain = 0
KDMS 121850Z 26008G13KT 31/08 A3006 RMK A01 T03050083  RH  026%=      5-min Rain = 0
KDMS 121855Z 26009KT 31/09 A3006 RMK A01 T03070092  RH  027%=      5-min Rain = 0
KDMS 121900Z 28010KT 31/09 A3005 RMK A01 T03100093  RH  026%=      5-min Rain = 0
KDMS 121905Z 27010KT 31/09 A3005 RMK A01 T03090087  RH  026%=      5-min Rain = 0
KDMS 121910Z 27010KT 31/09 A3005 RMK A01 T03080085  RH  025%=      5-min Rain = 0
KDMS 121915Z 28007G12KT 31/09 A3005 RMK A01 T03100085  RH  025%=      5-min Rain = 0
KDMS 121920Z 30007KT 31/08 A3005 RMK A01 T03100083  RH  025%=      5-min Rain = 0
KDMS 121925Z 33008KT 31/07 A3005 RMK A01 T03130074  RH  023%=      5-min Rain = 0
KDMS 121930Z 31009KT 31/08 A3004 RMK A01 T03140078  RH  023%=      5-min Rain = 0
KDMS 121935Z 31008KT 31/08 A3004 RMK A01 T03130078  RH  023%=      5-min Rain = 0
KDMS 121940Z 30008G13KT 31/08 A3004 RMK A01 T03130076  RH  023%=      5-min Rain = 0
KDMS 121945Z 28006KT 31/07 A3004 RMK A01 T03110071  RH  023%=      5-min Rain = 0
KDMS 121950Z 25006KT 31/08 A3003 RMK A01 T03110084  RH  025%=      5-min Rain = 0
KDMS 121955Z 26008G19KT 32/09 A3003 RMK A01 T03150089  RH  025%=      5-min Rain = 0
KDMS 122000Z 27008KT 31/08 A3003 RMK A01 T03140079  RH  024%=      5-min Rain = 0
KDMS 122005Z 27005G11KT 31/08 A3003 RMK A01 T03140084  RH  024%=      5-min Rain = 0
KDMS 122010Z 26007G12KT 31/08 A3002 RMK A01 T03140082  RH  024%=      5-min Rain = 0
KDMS 122015Z 26008KT 31/08 A3002 RMK A01 T03130080  RH  024%=      5-min Rain = 0
KDMS 122020Z 27008KT 31/07 A3002 RMK A01 T03120070  RH  022%=      5-min Rain = 0
KDMS 122025Z 28006G11KT 31/07 A3002 RMK A01 T03110068  RH  022%=      5-min Rain = 0
KDMS 122030Z 24007KT 31/08 A3001 RMK A01 T03130079  RH  024%=      5-min Rain = 0
KDMS 122035Z 25009KT 31/08 A3001 RMK A01 T03130084  RH  025%=      5-min Rain = 0
KDMS 122040Z 27008KT 31/08 A3001 RMK A01 T03130080  RH  024%=      5-min Rain = 0
KDMS 122045Z 27007KT 31/08 A3001 RMK A01 T03130082  RH  024%=      5-min Rain = 0
KDMS 122050Z 25006KT 31/08 A3001 RMK A01 T03120079  RH  024%=      5-min Rain = 0
KDMS 122055Z 27007G12KT 31/08 A30 RMK A01 T03130080  RH  024%=      5-min Rain = 0
KDMS 122100Z 27007KT 31/08 A30 RMK A01 T03120084  RH  025%=      5-min Rain = 0
KDMS 122105Z 24007KT 32/10 A30 RMK A01 T03150095  RH  026%=      5-min Rain = 0
KDMS 122110Z 25008KT 32/09 A30 RMK A01 T03160087  RH  025%=      5-min Rain = 0
KDMS 122115Z 26007KT 32/08 A2999 RMK A01 T03150080  RH  023%=      5-min Rain = 0
KDMS 122120Z 24005KT 32/08 A2999 RMK A01 T03150078  RH  023%=      5-min Rain = 0
KDMS 122125Z 30005KT 32/09 A2999 RMK A01 T03180091  RH  025%=      5-min Rain = 0
KDMS 122130Z 26007KT 32/09 A2999 RMK A01 T03200085  RH  024%=      5-min Rain = 0
KDMS 122135Z 24008KT 32/08 A2999 RMK A01 T03160080  RH  023%=      5-min Rain = 0
KDMS 122140Z 27006G11KT 32/09 A2999 RMK A01 T03160088  RH  025%=      5-min Rain = 0
KDMS 122145Z 24004KT 32/09 A2998 RMK A01 T03170087  RH  025%=      5-min Rain = 0
KDMS 122150Z 25002G7KT 32/09 A2998 RMK A01 T03180085  RH  024%=      5-min Rain = 0
KDMS 122155Z 26005KT 32/09 A2998 RMK A01 T03190088  RH  024%=      5-min Rain = 0
KDMS 122200Z 26006KT 32/08 A2998 RMK A01 T03160084  RH  024%=      5-min Rain = 0
KDMS 122205Z 24006G11KT 32/09 A2998 RMK A01 T03150086  RH  025%=      5-min Rain = 0
KDMS 122210Z 25008KT 31/08 A2998 RMK A01 T03140082  RH  024%=      5-min Rain = 0
KDMS 122215Z 25007KT 31/08 A2998 RMK A01 T03130081  RH  024%=      5-min Rain = 0
KDMS 122220Z 25003G8KT 31/08 A2998 RMK A01 T03130077  RH  023%=      5-min Rain = 0
KDMS 122225Z 22004KT 32/08 A2998 RMK A01 T03150079  RH  023%=      5-min Rain = 0
KDMS 122230Z 22007KT 31/08 A2997 RMK A01 T03130083  RH  024%=      5-min Rain = 0
KDMS 122235Z 22004KT 31/08 A2997 RMK A01 T03130081  RH  024%=      5-min Rain = 0
KDMS 122240Z 26002KT 32/08 A2997 RMK A01 T03170079  RH  023%=      5-min Rain = 0
KDMS 122245Z 24002KT 32/08 A2997 RMK A01 T03200078  RH  023%=      5-min Rain = 0
KDMS 122250Z 26004KT 32/08 A2997 RMK A01 T03180076  RH  023%=      5-min Rain = 0
KDMS 122255Z 25005KT 32/08 A2997 RMK A01 T03150080  RH  024%=      5-min Rain = 0
KDMS 122300Z 23006KT 31/08 A2997 RMK A01 T03110076  RH  023%=      5-min Rain = 0
KDMS 122305Z 21004KT 31/08 A2997 RMK A01 T03100084  RH  025%=      5-min Rain = 0
KDMS 122310Z 27004KT 31/08 A2997 RMK A01 T03100084  RH  025%=      5-min Rain = 0
KDMS 122315Z 24006KT 31/08 A2997 RMK A01 T03110080  RH  024%=      5-min Rain = 0
KDMS 122320Z 24006KT 31/08 A2997 RMK A01 T03080080  RH  024%=      5-min Rain = 0
KDMS 122325Z 25004KT 31/08 A2997 RMK A01 T03060082  RH  025%=      5-min Rain = 0
KDMS 122330Z 23006KT 30/09 A2996 RMK A01 T03040093  RH  027%=      5-min Rain = 0
KDMS 122335Z 23006KT 30/09 A2996 RMK A01 T03020092  RH  028%=      5-min Rain = 0
KDMS 122340Z 24005KT 30/10 A2996 RMK A01 T02990095  RH  029%=      5-min Rain = 0
KDMS 122345Z 23005KT 30/10 A2996 RMK A01 T02970095  RH  029%=      5-min Rain = 0
KDMS 122350Z 22004KT 29/10 A2996 RMK A01 T02910100  RH  031%=      5-min Rain = 0
KDMS 122355Z 23005KT 29/11 A2996 RMK A01 T02880110  RH  034%=      5-min Rain = 0
KDMS 130000Z 23005KT 29/11 A2996 RMK A01 T02890111  RH  034%=      5-min Rain = 0
KDMS 130005Z 22004KT 29/11 A2996 RMK A01 T02870113  RH  034%=      5-min Rain = 0
KDMS 130010Z 21004KT 28/11 A2996 RMK A01 T02830113  RH  035%=      5-min Rain = 0
KDMS 130015Z 22004KT 28/12 A2996 RMK A01 T02820118  RH  037%=      5-min Rain = 0
KDMS 130020Z 22004KT 28/12 A2996 RMK A01 T02820120  RH  037%=      5-min Rain = 0
KDMS 130025Z 23004KT 28/12 A2996 RMK A01 T02820116  RH  036%=      5-min Rain = 0
KDMS 130030Z 23005KT 28/11 A2996 RMK A01 T02790113  RH  036%=      5-min Rain = 0
KDMS 130035Z 23005KT 27/11 A2996 RMK A01 T02710113  RH  038%=      5-min Rain = 0
KDMS 130040Z 23003KT 27/12 A2996 RMK A01 T02700118  RH  040%=      5-min Rain = 0
KDMS 130045Z 22004KT 27/11 A2996 RMK A01 T02660113  RH  039%=      5-min Rain = 0
KDMS 130050Z 22004KT 26/12 A2996 RMK A01 T02640115  RH  040%=      5-min Rain = 0
KDMS 130055Z 10003G9KT 26/12 A2996 RMK A01 T02600118  RH  042%=      5-min Rain = 0
KDMS 130100Z 06009KT 26/11 A2997 RMK A01 T02590111  RH  040%=      5-min Rain = 0
KDMS 130105Z 06008KT 26/11 A2997 RMK A01 T02600114  RH  041%=      5-min Rain = 0
KDMS 130110Z 07010G15KT 26/12 A2997 RMK A01 T02600120  RH  042%=      5-min Rain = 0
KDMS 130115Z 08008KT 25/12 A2997 RMK A01 T02540121  RH  044%=      5-min Rain = 0
KDMS 130120Z 08010KT 25/12 A2996 RMK A01 T02520118  RH  044%=      5-min Rain = 0
KDMS 130125Z 08009KT 25/12 A2997 RMK A01 T02530121  RH  045%=      5-min Rain = 0
KDMS 130130Z 09008KT 25/12 A2997 RMK A01 T02460124  RH  047%=      5-min Rain = 0
KDMS 130135Z 09008KT 24/13 A2997 RMK A01 T02390125  RH  050%=      5-min Rain = 0
KDMS 130140Z 09009KT 24/13 A2997 RMK A01 T02350126  RH  052%=      5-min Rain = 0
KDMS 130145Z 10010KT 23/13 A2997 RMK A01 T02320126  RH  052%=      5-min Rain = 0
KDMS 130150Z 10010KT 23/13 A2998 RMK A01 T02320126  RH  052%=      5-min Rain = 0
KDMS 130155Z 10009KT 23/13 A2998 RMK A01 T02310126  RH  053%=      5-min Rain = 0
KDMS 130200Z 10009KT 23/13 A2998 RMK A01 T02300127  RH  053%=      5-min Rain = 0
KDMS 130205Z 10009KT 23/13 A2998 RMK A01 T02290127  RH  054%=      5-min Rain = 0
KDMS 130210Z 10009KT 23/13 A2998 RMK A01 T02270127  RH  054%=      5-min Rain = 0
KDMS 130215Z 10009KT 23/13 A2998 RMK A01 T02250128  RH  055%=      5-min Rain = 0
KDMS 130220Z 10009KT 22/13 A2998 RMK A01 T02220128  RH  056%=      5-min Rain = 0
KDMS 130225Z 10009KT 22/13 A2998 RMK A01 T02210127  RH  056%=      5-min Rain = 0
KDMS 130230Z 10008KT 22/13 A2999 RMK A01 T02190127  RH  057%=      5-min Rain = 0
KDMS 130235Z 10008KT 22/13 A2999 RMK A01 T02180127  RH  058%=      5-min Rain = 0
KDMS 130240Z 10008KT 22/13 A2999 RMK A01 T02170127  RH  058%=      5-min Rain = 0
KDMS 130245Z 11007KT 22/13 A2999 RMK A01 T02160127  RH  058%=      5-min Rain = 0
KDMS 130250Z 11008KT 22/13 A2999 RMK A01 T02150128  RH  059%=      5-min Rain = 0
KDMS 130255Z 11007KT 21/13 A2999 RMK A01 T02130127  RH  059%=      5-min Rain = 0
KDMS 130300Z 11008KT 21/13 A30 RMK A01 T02130127  RH  059%=      5-min Rain = 0
KDMS 130305Z 11007KT 21/13 A30 RMK A01 T02110127  RH  060%=      5-min Rain = 0
KDMS 130310Z 12007KT 21/13 A30 RMK A01 T02090127  RH  061%=      5-min Rain = 0
KDMS 130315Z 11006KT 21/13 A30 RMK A01 T02070127  RH  061%=      5-min Rain = 0
KDMS 130320Z 11006KT 21/13 A30 RMK A01 T02050127  RH  062%=      5-min Rain = 0
KDMS 130325Z 11006KT 20/13 A3001 RMK A01 T02040126  RH  062%=      5-min Rain = 0
KDMS 130330Z 11005KT 20/13 A3001 RMK A01 T02030126  RH  062%=      5-min Rain = 0
KDMS 130335Z 12006KT 20/13 A3001 RMK A01 T02010125  RH  063%=      5-min Rain = 0
KDMS 130340Z 12006KT 20/13 A3001 RMK A01 T01990125  RH  064%=      5-min Rain = 0
KDMS 130345Z 12005KT 20/13 A3001 RMK A01 T01980126  RH  064%=      5-min Rain = 0
KDMS 130350Z 12006KT 20/13 A3001 RMK A01 T01990126  RH  064%=      5-min Rain = 0
KDMS 130355Z 12007KT 20/13 A3001 RMK A01 T02010125  RH  063%=      5-min Rain = 0
KDMS 130400Z 12006KT 20/13 A3001 RMK A01 T02020125  RH  062%=      5-min Rain = 0
KDMS 130405Z 12006KT 20/13 A3001 RMK A01 T02010126  RH  063%=      5-min Rain = 0
KDMS 130410Z 12006KT 20/13 A3001 RMK A01 T02000126  RH  064%=      5-min Rain = 0
KDMS 130415Z 12006KT 20/13 A3001 RMK A01 T01990125  RH  064%=      5-min Rain = 0
KDMS 130420Z 13006KT 20/13 A3001 RMK A01 T01990125  RH  064%=      5-min Rain = 0
KDMS 130425Z 13005KT 20/13 A3001 RMK A01 T01990125  RH  064%=      5-min Rain = 0
KDMS 130430Z 13006KT 20/12 A3001 RMK A01 T01970124  RH  064%=      5-min Rain = 0
KDMS 130435Z 13006KT 20/12 A3001 RMK A01 T01990123  RH  063%=      5-min Rain = 0
KDMS 130440Z 13006KT 20/12 A3001 RMK A01 T02000123  RH  062%=      5-min Rain = 0
KDMS 130445Z 13007KT 20/12 A3001 RMK A01 T02020122  RH  061%=      5-min Rain = 0
KDMS 130450Z 12007KT 20/12 A3001 RMK A01 T02030122  RH  061%=      5-min Rain = 0
KDMS 130455Z 12006KT 20/12 A3001 RMK A01 T02010122  RH  062%=      5-min Rain = 0

Page generated in 0.0237 seconds.